Maasdijk, Netherlands
Current Conditions -  °F | °C
As of 11:25 PM on Monday 24 Nov 2014 (Local Time) from EHRD Reporting Station
Haze Haze  
Wind Chill: 34°   Ceiling: Unl
Heat Index: 34°   Visibility: 2.1mi
Dew Point: 34°   Wind: 2mph
Humidity: 100%   Direction: 340°NNW
Pressure: 30.33"   Gusts: NA
Location:  51.96°N, 4.21°E
Report Text: EHRD 242225Z AUTO 34002KT 3400 BR NCD 01/01 Q1027 TEMPO 9999MIFG
Loading
Personal Weather Stations






























Interactive Weather Map New forecast layout! Learn more

10-Day Weather Forecast

Advertisements
Track Severe Weather on mobile